createdAt,value
2022-11-04T00:00:30.665Z,76.5
2022-11-04T00:01:30.291Z,76.6
2022-11-04T00:02:30.475Z,76.6
2022-11-04T00:03:30.305Z,76.7
2022-11-04T00:04:30.308Z,76.7
2022-11-04T00:05:30.317Z,76.7
2022-11-04T00:06:30.323Z,76.7
2022-11-04T00:07:30.330Z,76.7
2022-11-04T00:08:30.338Z,76.7
2022-11-04T00:09:30.801Z,76.8
2022-11-04T00:10:30.346Z,76.8
2022-11-04T00:11:30.359Z,77.0
2022-11-04T00:12:30.359Z,77.1
2022-11-04T00:13:30.409Z,77.1
2022-11-04T00:14:30.381Z,77.1
2022-11-04T00:15:30.392Z,77.2
2022-11-04T00:16:30.400Z,77.2
2022-11-04T00:17:30.401Z,77.2
2022-11-04T00:18:30.404Z,77.3
2022-11-04T00:19:30.414Z,77.3
2022-11-04T00:20:30.419Z,77.4
2022-11-04T00:21:30.432Z,77.4
2022-11-04T00:22:30.436Z,77.6
2022-11-04T00:23:30.442Z,77.6
2022-11-04T00:24:30.455Z,77.7
2022-11-04T00:25:30.769Z,77.8
2022-11-04T00:26:30.465Z,77.8
2022-11-04T00:27:30.471Z,77.8
2022-11-04T00:28:30.473Z,78.0
2022-11-04T00:29:30.481Z,78.0
2022-11-04T00:30:30.483Z,78.2
2022-11-04T00:31:30.494Z,78.3
2022-11-04T00:32:30.503Z,78.3
2022-11-04T00:33:30.499Z,78.4
2022-11-04T00:34:30.514Z,78.5
2022-11-04T00:35:30.519Z,78.5
2022-11-04T00:36:30.531Z,78.6
2022-11-04T00:37:30.530Z,78.8
2022-11-04T00:38:30.538Z,78.7
2022-11-04T00:39:30.538Z,78.7
2022-11-04T00:40:30.554Z,78.8
2022-11-04T00:41:30.707Z,78.8
2022-11-04T00:42:30.600Z,78.8
2022-11-04T00:43:30.561Z,78.9
2022-11-04T00:44:30.563Z,79.0
2022-11-04T00:45:30.774Z,79.0
2022-11-04T00:46:30.578Z,79.1
2022-11-04T00:47:30.587Z,79.2
2022-11-04T00:48:30.595Z,79.2
2022-11-04T00:49:30.598Z,79.3
2022-11-04T00:50:30.605Z,79.4
2022-11-04T00:51:30.614Z,79.6
2022-11-04T00:52:30.616Z,79.7
2022-11-04T00:53:30.632Z,79.8
2022-11-04T00:54:30.643Z,79.8
2022-11-04T00:55:30.644Z,79.9
2022-11-04T00:56:30.655Z,79.8
2022-11-04T00:57:30.662Z,79.9
2022-11-04T00:58:30.663Z,79.8
2022-11-04T00:59:30.673Z,79.8
2022-11-04T01:00:30.692Z,79.9
2022-11-04T01:01:31.179Z,79.8
2022-11-04T01:02:31.312Z,79.9
2022-11-04T01:03:30.708Z,80.0
2022-11-04T01:04:30.710Z,80.0
2022-11-04T01:05:30.715Z,80.0
2022-11-04T01:06:30.726Z,80.1
2022-11-04T01:07:30.748Z,80.1
2022-11-04T01:08:30.739Z,80.1
2022-11-04T01:09:30.744Z,80.2
2022-11-04T01:10:30.743Z,80.1
2022-11-04T01:11:30.758Z,80.2
2022-11-04T01:12:30.759Z,80.3
2022-11-04T01:13:30.800Z,80.3
2022-11-04T01:14:30.775Z,80.3
2022-11-04T01:15:30.785Z,80.3
2022-11-04T01:16:30.797Z,80.4
2022-11-04T01:17:30.790Z,80.4
2022-11-04T01:18:30.804Z,80.3
2022-11-04T01:19:30.803Z,80.3
2022-11-04T01:20:30.805Z,80.3
2022-11-04T01:21:30.820Z,80.2
2022-11-04T01:22:30.833Z,80.2
2022-11-04T01:23:30.838Z,80.2
2022-11-04T01:24:30.841Z,80.2
2022-11-04T01:25:30.842Z,80.1
2022-11-04T01:26:30.851Z,80.1
2022-11-04T01:27:30.875Z,80.1
2022-11-04T01:28:30.869Z,80.1
2022-11-04T01:29:30.879Z,80.1
2022-11-04T01:30:30.878Z,80.1
2022-11-04T01:31:30.891Z,80.1
2022-11-04T01:32:30.888Z,80.1
2022-11-04T01:33:30.900Z,80.0
2022-11-04T01:34:30.899Z,80.0
2022-11-04T01:35:30.910Z,80.0
2022-11-04T01:36:30.910Z,80.0
2022-11-04T01:37:30.919Z,80.0
2022-11-04T01:38:30.928Z,79.9
2022-11-04T01:39:30.933Z,79.9
2022-11-04T01:40:30.938Z,79.9
2022-11-04T01:41:30.958Z,79.9
2022-11-04T01:42:30.950Z,79.9
2022-11-04T01:43:30.963Z,80.0
2022-11-04T01:44:30.965Z,79.9
2022-11-04T01:45:30.970Z,79.9
2022-11-04T01:46:30.985Z,80.0
2022-11-04T01:47:30.987Z,80.0
2022-11-04T01:48:30.999Z,79.9
2022-11-04T01:49:30.993Z,79.9
2022-11-04T01:50:31.008Z,79.9
2022-11-04T01:51:31.013Z,79.9
2022-11-04T01:52:31.015Z,79.9
2022-11-04T01:53:31.025Z,79.9
2022-11-04T02:11:31.348Z,79.7
2022-11-04T02:12:31.147Z,79.7
2022-11-04T02:13:31.165Z,79.8
2022-11-04T02:14:31.161Z,79.7
2022-11-04T02:15:31.175Z,79.7
2022-11-04T02:16:31.171Z,79.7
2022-11-04T02:17:31.179Z,79.7
2022-11-04T02:18:31.184Z,79.7
2022-11-04T02:19:31.193Z,79.7
2022-11-04T02:20:31.197Z,79.7
2022-11-04T02:21:31.206Z,79.6
2022-11-04T02:22:31.222Z,79.6
2022-11-04T02:23:31.222Z,79.6
2022-11-04T02:24:31.233Z,79.6
2022-11-04T02:25:31.236Z,79.5
2022-11-04T02:26:31.244Z,79.5
2022-11-04T02:27:31.251Z,79.6
2022-11-04T02:28:31.261Z,79.6
2022-11-04T02:29:31.261Z,79.6
2022-11-04T02:30:31.278Z,79.7
2022-11-04T02:31:31.286Z,79.8
2022-11-04T02:32:31.303Z,79.8
2022-11-04T02:33:31.301Z,79.9
2022-11-04T02:34:31.308Z,79.9
2022-11-04T02:35:31.315Z,79.9
2022-11-04T02:36:31.329Z,80.0
2022-11-04T02:37:31.326Z,79.9
2022-11-04T02:38:31.349Z,79.9
2022-11-04T02:39:31.349Z,80.0
2022-11-04T02:40:31.361Z,80.0
2022-11-04T02:41:31.364Z,80.1
2022-11-04T02:42:31.372Z,80.2
2022-11-04T02:43:31.386Z,80.2
2022-11-04T02:44:31.390Z,80.2
2022-11-04T02:45:31.392Z,80.3
2022-11-04T02:46:31.400Z,80.3
2022-11-04T02:47:31.409Z,80.4
2022-11-04T02:48:31.423Z,80.5
2022-11-04T02:49:31.419Z,80.5
2022-11-04T02:50:31.430Z,80.5
2022-11-04T02:51:31.441Z,80.5
2022-11-04T02:52:31.436Z,80.6
2022-11-04T02:53:31.450Z,80.7
2022-11-04T02:54:31.446Z,80.6
2022-11-04T02:55:31.452Z,80.7
2022-11-04T02:56:31.463Z,80.8
2022-11-04T02:57:31.470Z,80.8
2022-11-04T02:58:31.484Z,80.9
2022-11-04T02:59:31.487Z,81.0
2022-11-04T03:00:31.493Z,81.0
2022-11-04T03:01:32.056Z,81.1
2022-11-04T03:02:31.722Z,81.3
2022-11-04T03:03:31.519Z,81.3
2022-11-04T03:04:31.548Z,81.4
2022-11-04T03:05:31.534Z,81.5
2022-11-04T03:06:31.527Z,81.7
2022-11-04T03:07:31.536Z,81.7
2022-11-04T03:08:31.542Z,82.0
2022-11-04T03:09:31.547Z,82.1
2022-11-04T03:10:31.549Z,82.2
2022-11-04T03:11:31.575Z,82.2
2022-11-04T03:12:31.561Z,82.5
2022-11-04T03:13:31.572Z,82.5
2022-11-04T03:14:31.573Z,82.8
2022-11-04T03:15:31.594Z,83.0
2022-11-04T03:16:31.594Z,83.0
2022-11-04T03:17:31.596Z,83.2
2022-11-04T03:18:31.617Z,83.4
2022-11-04T03:19:31.611Z,83.4
2022-11-04T03:20:31.703Z,83.6
2022-11-04T03:21:31.633Z,83.6
2022-11-04T03:22:31.629Z,83.6
2022-11-04T03:23:31.634Z,83.7
2022-11-04T03:24:31.640Z,83.7
2022-11-04T03:25:31.650Z,83.8
2022-11-04T03:26:31.652Z,84.0
2022-11-04T03:27:31.665Z,83.9
2022-11-04T03:28:31.686Z,84.0
2022-11-04T03:29:31.678Z,84.0
2022-11-04T03:30:31.686Z,84.3
2022-11-04T03:31:31.719Z,84.2
2022-11-04T03:32:31.704Z,84.4
2022-11-04T03:33:31.718Z,84.5
2022-11-04T03:34:31.719Z,84.5
2022-11-04T03:35:31.732Z,84.7
2022-11-04T03:36:31.728Z,84.6
2022-11-04T03:37:31.739Z,84.6
2022-11-04T03:38:31.746Z,84.8
2022-11-04T03:39:31.746Z,84.8
2022-11-04T03:40:31.754Z,84.8
2022-11-04T03:41:31.755Z,84.8
2022-11-04T03:42:31.776Z,84.9
2022-11-04T03:43:31.769Z,85.0
2022-11-04T03:44:31.799Z,85.0
2022-11-04T03:45:31.790Z,85.1
2022-11-04T03:46:31.802Z,85.2
2022-11-04T03:47:31.798Z,85.3
2022-11-04T03:48:31.808Z,85.5
2022-11-04T03:49:31.808Z,85.6
2022-11-04T03:50:31.825Z,85.5
2022-11-04T03:51:31.825Z,85.5
2022-11-04T03:52:31.837Z,85.6
2022-11-04T03:53:31.848Z,85.6
2022-11-04T03:54:31.844Z,85.7
2022-11-04T03:55:31.861Z,85.8
2022-11-04T03:56:31.858Z,85.9
2022-11-04T03:57:31.866Z,86.0
2022-11-04T03:58:31.881Z,85.9
2022-11-04T03:59:31.874Z,86.0
2022-11-04T04:00:31.914Z,85.8
2022-11-04T04:01:32.458Z,85.9
2022-11-04T04:02:31.894Z,86.1
2022-11-04T04:03:31.905Z,86.0
2022-11-04T04:04:31.911Z,86.1
2022-11-04T04:05:31.922Z,85.9
2022-11-04T04:06:31.929Z,86.0
2022-11-04T04:07:31.939Z,86.1
2022-11-04T04:08:31.947Z,86.1
2022-11-04T04:09:31.955Z,86.1
2022-11-04T04:10:31.973Z,86.2
2022-11-04T04:11:31.971Z,86.2
2022-11-04T04:12:31.992Z,86.2
2022-11-04T04:13:31.992Z,86.3
2022-11-04T04:14:31.998Z,86.3
2022-11-04T04:15:32.014Z,86.4
2022-11-04T04:16:32.025Z,86.4
2022-11-04T04:17:32.020Z,86.4
2022-11-04T04:18:32.029Z,86.4
2022-11-04T04:19:32.037Z,86.4
2022-11-04T04:20:32.047Z,86.4
2022-11-04T04:21:32.055Z,86.3
2022-11-04T04:22:32.061Z,86.4
2022-11-04T04:23:32.065Z,86.4
2022-11-04T04:24:32.078Z,86.5
2022-11-04T04:25:32.083Z,86.6
2022-11-04T04:26:32.082Z,86.6
2022-11-04T04:27:32.098Z,86.6
2022-11-04T04:28:32.101Z,86.7
2022-11-04T04:29:32.108Z,86.8
2022-11-04T04:30:32.110Z,86.8
2022-11-04T04:31:32.177Z,86.9
2022-11-04T04:32:32.122Z,86.9
2022-11-04T04:33:32.127Z,86.9
2022-11-04T04:34:32.137Z,87.0
2022-11-04T04:35:32.159Z,87.0
2022-11-04T04:36:32.150Z,87.0
2022-11-04T04:37:32.159Z,86.9
2022-11-04T04:38:32.171Z,86.8
2022-11-04T04:39:32.173Z,86.8
2022-11-04T04:40:32.189Z,86.8
2022-11-04T04:41:32.201Z,86.8
2022-11-04T04:42:32.214Z,86.8
2022-11-04T04:43:32.217Z,86.9
2022-11-04T04:44:32.225Z,86.9
2022-11-04T04:45:32.223Z,86.9
2022-11-04T04:46:32.250Z,86.9
2022-11-04T04:47:32.250Z,86.9
2022-11-04T04:48:32.250Z,86.9
2022-11-04T04:49:32.260Z,86.9
2022-11-04T04:50:32.278Z,86.9
2022-11-04T04:51:32.274Z,86.9
2022-11-04T04:52:32.295Z,86.8
2022-11-04T04:53:32.297Z,86.9
2022-11-04T04:54:32.304Z,86.9
2022-11-04T04:55:42.077Z,86.9
2022-11-04T04:56:32.326Z,86.9
2022-11-04T04:57:32.336Z,86.8
2022-11-04T04:58:32.341Z,86.8
2022-11-04T04:59:32.361Z,86.8
2022-11-04T05:00:32.358Z,86.8
2022-11-04T05:01:32.978Z,86.7
2022-11-04T05:02:32.796Z,86.7
2022-11-04T05:03:32.380Z,86.8
2022-11-04T05:04:32.388Z,86.8
2022-11-04T05:05:32.397Z,86.8
2022-11-04T05:06:32.443Z,86.7
2022-11-04T05:07:32.416Z,86.5
2022-11-04T05:08:32.417Z,86.5
2022-11-04T05:09:32.427Z,86.4
2022-11-04T05:10:32.434Z,86.4
2022-11-04T05:11:32.434Z,86.3
2022-11-04T05:12:32.441Z,86.3
2022-11-04T05:13:32.452Z,86.2
2022-11-04T05:14:32.459Z,86.2
2022-11-04T05:15:32.483Z,86.1
2022-11-04T05:16:41.180Z,85.7
2022-11-04T05:17:32.482Z,85.8
2022-11-04T05:18:32.488Z,85.8
2022-11-04T05:19:32.503Z,85.5
2022-11-04T05:20:32.501Z,85.7
2022-11-04T05:21:32.504Z,85.9
2022-11-04T05:22:32.521Z,85.7
2022-11-04T05:23:32.521Z,85.6
2022-11-04T05:24:32.528Z,85.5
2022-11-04T05:25:32.539Z,85.4
2022-11-04T05:26:32.561Z,85.2
2022-11-04T05:27:32.554Z,85.1
2022-11-04T05:28:32.567Z,85.0
2022-11-04T05:29:32.568Z,84.9
2022-11-04T05:30:32.599Z,84.2
2022-11-04T05:31:32.600Z,84.3
2022-11-04T05:32:32.608Z,84.2
2022-11-04T05:33:32.616Z,84.2
2022-11-04T05:34:32.613Z,83.6
2022-11-04T05:35:32.622Z,83.5
2022-11-04T05:36:32.633Z,83.4
2022-11-04T05:37:32.648Z,83.3
2022-11-04T05:38:32.645Z,83.1
2022-11-04T05:39:32.670Z,82.9
2022-11-04T05:40:32.673Z,82.9
2022-11-04T05:41:32.668Z,82.8
2022-11-04T05:42:32.676Z,81.7
2022-11-04T05:43:32.700Z,81.9
2022-11-04T05:44:32.695Z,82.0
2022-11-04T05:45:32.695Z,81.9
2022-11-04T05:46:32.710Z,81.6
2022-11-04T05:47:32.711Z,81.5
2022-11-04T05:48:40.898Z,81.8
2022-11-04T05:49:32.731Z,81.6
2022-11-04T05:50:32.746Z,81.6
2022-11-04T05:51:32.734Z,81.4
2022-11-04T05:52:32.748Z,81.5
2022-11-04T05:53:32.761Z,81.5
2022-11-04T05:54:32.763Z,81.1
2022-11-04T05:55:32.779Z,81.1
2022-11-04T05:56:32.781Z,81.0
2022-11-04T05:57:32.784Z,80.6
2022-11-04T05:58:32.814Z,80.4
2022-11-04T05:59:32.805Z,80.0
2022-11-04T06:00:32.804Z,80.3
2022-11-04T06:01:33.011Z,79.8
2022-11-04T06:02:33.021Z,80.1
2022-11-04T06:03:32.826Z,80.4
2022-11-04T06:04:32.867Z,80.5
2022-11-04T06:05:32.840Z,80.4
2022-11-04T06:06:32.860Z,79.9
2022-11-04T06:07:32.857Z,80.1
2022-11-04T06:08:32.890Z,80.0
2022-11-04T06:09:32.870Z,80.3
2022-11-04T06:10:32.874Z,80.3
2022-11-04T06:11:32.887Z,80.3
2022-11-04T06:12:32.889Z,80.3
2022-11-04T06:13:32.899Z,80.4
2022-11-04T06:14:32.905Z,80.4
2022-11-04T06:15:32.904Z,80.1
2022-11-04T06:16:32.919Z,80.2
2022-11-04T06:17:32.918Z,80.4
2022-11-04T06:18:32.926Z,80.2
2022-11-04T06:19:32.942Z,80.3
2022-11-04T06:20:32.941Z,80.2
2022-11-04T06:21:32.988Z,79.8
2022-11-04T06:22:32.969Z,79.8
2022-11-04T06:23:32.960Z,79.9
2022-11-04T06:24:32.977Z,79.8
2022-11-04T06:25:32.984Z,79.9
2022-11-04T06:26:32.989Z,79.9
2022-11-04T06:27:32.996Z,80.1
2022-11-04T06:28:33.001Z,80.1
2022-11-04T06:29:33.014Z,80.1
2022-11-04T06:30:33.013Z,80.2
2022-11-04T06:31:33.029Z,80.2
2022-11-04T06:32:33.056Z,80.1
2022-11-04T06:33:37.425Z,79.4
2022-11-04T06:34:33.052Z,79.5
2022-11-04T06:35:33.057Z,79.6
2022-11-04T06:36:33.060Z,79.8
2022-11-04T06:37:33.123Z,79.4
2022-11-04T06:38:33.071Z,79.2
2022-11-04T06:39:33.084Z,78.2
2022-11-04T06:40:33.112Z,78.7
2022-11-04T06:41:33.107Z,79.0
2022-11-04T06:42:33.185Z,79.3
2022-11-04T06:43:33.117Z,79.4
2022-11-04T06:44:33.127Z,79.3
2022-11-04T06:45:33.131Z,79.2
2022-11-04T06:46:33.145Z,79.2
2022-11-04T06:47:33.167Z,79.0
2022-11-04T06:48:33.173Z,78.9
2022-11-04T06:49:33.160Z,78.8
2022-11-04T06:50:33.175Z,78.9
2022-11-04T06:51:33.180Z,78.8
2022-11-04T06:52:42.748Z,78.8
2022-11-04T06:53:33.201Z,78.7
2022-11-04T06:54:33.203Z,78.8
2022-11-04T06:55:33.199Z,79.0
2022-11-04T06:56:33.213Z,79.1
2022-11-04T06:57:33.219Z,79.2
2022-11-04T06:58:33.224Z,79.3
2022-11-04T06:59:33.231Z,79.3
2022-11-04T07:00:33.242Z,79.3
2022-11-04T07:01:33.663Z,79.2
2022-11-04T07:02:33.783Z,79.3
2022-11-04T07:03:33.263Z,79.6
2022-11-04T07:04:33.273Z,79.8
2022-11-04T07:05:33.296Z,79.7
2022-11-04T07:06:33.296Z,79.8
2022-11-04T07:07:33.313Z,79.8
2022-11-04T07:08:33.313Z,80.0
2022-11-04T07:09:33.323Z,80.1
2022-11-04T07:10:33.342Z,80.2
2022-11-04T07:11:33.348Z,79.9
2022-11-04T07:12:33.345Z,80.0
2022-11-04T07:13:33.351Z,80.2
2022-11-04T07:14:33.359Z,80.4
2022-11-04T07:15:33.375Z,80.5
2022-11-04T07:16:33.375Z,80.6
2022-11-04T07:17:33.381Z,80.5
2022-11-04T07:18:33.400Z,80.5
2022-11-04T07:19:33.398Z,80.4
2022-11-04T07:20:33.465Z,80.5
2022-11-04T07:21:33.412Z,80.1
2022-11-04T07:22:33.423Z,80.0
2022-11-04T07:23:33.427Z,80.0
2022-11-04T07:24:33.438Z,79.3
2022-11-04T07:25:33.440Z,79.3
2022-11-04T07:26:33.447Z,79.0
2022-11-04T07:27:33.463Z,79.0
2022-11-04T07:28:33.476Z,78.8
2022-11-04T07:29:33.474Z,78.9
2022-11-04T07:30:33.481Z,79.0
2022-11-04T07:31:33.485Z,79.0
2022-11-04T07:32:33.500Z,78.8
2022-11-04T07:33:33.513Z,78.5
2022-11-04T07:34:33.513Z,78.6
2022-11-04T07:35:33.514Z,78.7
2022-11-04T07:36:33.523Z,78.9
2022-11-04T07:37:33.527Z,79.0
2022-11-04T07:38:33.544Z,79.0
2022-11-04T07:39:33.545Z,79.0
2022-11-04T07:40:33.550Z,79.2
2022-11-04T07:41:33.575Z,79.2
2022-11-04T07:42:33.563Z,79.5
2022-11-04T07:43:33.569Z,79.6
2022-11-04T07:44:33.578Z,79.8
2022-11-04T07:45:33.592Z,79.9
2022-11-04T07:46:33.598Z,80.1
2022-11-04T07:47:33.604Z,80.2
2022-11-04T07:48:33.607Z,80.5
2022-11-04T07:49:33.809Z,80.5
2022-11-04T07:50:33.785Z,80.5
2022-11-04T07:51:33.636Z,80.3
2022-11-04T07:52:33.634Z,80.5
2022-11-04T07:53:33.644Z,80.6
2022-11-04T07:54:33.648Z,80.8
2022-11-04T07:55:34.105Z,80.6
2022-11-04T07:56:33.670Z,80.7
2022-11-04T07:57:33.669Z,80.8
2022-11-04T07:58:33.679Z,80.6
2022-11-04T07:59:33.693Z,79.7
2022-11-04T08:00:33.700Z,79.8
2022-11-04T08:01:33.867Z,79.8
2022-11-04T08:02:35.743Z,79.7
2022-11-04T08:03:34.002Z,79.7
2022-11-04T08:04:33.744Z,79.4
2022-11-04T08:05:33.746Z,79.0
2022-11-04T08:06:33.751Z,78.9
2022-11-04T08:07:33.768Z,78.7
2022-11-04T08:08:34.017Z,78.7
2022-11-04T08:09:33.780Z,78.7
2022-11-04T08:10:33.788Z,78.4
2022-11-04T08:11:33.798Z,78.5
2022-11-04T08:12:33.805Z,78.3
2022-11-04T08:13:33.827Z,77.8
2022-11-04T08:14:33.826Z,77.8
2022-11-04T08:15:33.833Z,78.0
2022-11-04T08:16:34.839Z,77.8
2022-11-04T08:17:33.854Z,77.7
2022-11-04T08:18:33.874Z,77.0
2022-11-04T08:19:33.863Z,77.4
2022-11-04T08:20:33.874Z,77.4
2022-11-04T08:21:33.893Z,77.0
2022-11-04T08:22:33.887Z,77.0
2022-11-04T08:23:33.901Z,76.9
2022-11-04T08:24:33.917Z,76.7
2022-11-04T08:25:33.911Z,76.9
2022-11-04T08:26:34.565Z,77.0
2022-11-04T08:27:33.925Z,76.6
2022-11-04T08:28:33.933Z,76.5
2022-11-04T08:29:33.943Z,76.6
2022-11-04T08:30:33.956Z,76.6
2022-11-04T08:31:33.975Z,76.7
2022-11-04T08:32:33.972Z,76.2
2022-11-04T08:33:33.982Z,76.1
2022-11-04T08:34:33.988Z,76.4
2022-11-04T08:35:41.329Z,76.5
2022-11-04T08:36:34.078Z,76.8
2022-11-04T08:37:34.084Z,77.1
2022-11-04T08:38:34.028Z,77.1
2022-11-04T08:39:34.100Z,77.2
2022-11-04T08:40:34.038Z,77.2
2022-11-04T08:41:34.048Z,77.3
2022-11-04T08:42:34.068Z,76.9
2022-11-04T08:43:34.061Z,76.8
2022-11-04T08:44:34.079Z,76.7
2022-11-04T08:45:34.091Z,76.7
2022-11-04T08:46:34.085Z,76.7
2022-11-04T08:47:34.092Z,76.4
2022-11-04T08:48:34.105Z,76.0
2022-11-04T08:49:34.164Z,76.1
2022-11-04T08:50:34.118Z,75.9
2022-11-04T08:51:34.120Z,76.0
2022-11-04T08:52:34.136Z,75.3
2022-11-04T08:53:34.140Z,75.5
2022-11-04T08:54:34.156Z,75.0
2022-11-04T08:55:34.151Z,74.6
2022-11-04T08:56:34.166Z,74.6
2022-11-04T08:57:34.190Z,74.9
2022-11-04T08:58:34.177Z,74.9
2022-11-04T08:59:34.188Z,74.7
2022-11-04T09:00:34.189Z,74.9
2022-11-04T09:01:36.596Z,75.1
2022-11-04T09:02:34.213Z,75.1
2022-11-04T09:03:34.352Z,74.9
2022-11-04T09:04:34.230Z,75.0
2022-11-04T09:05:34.240Z,74.8
2022-11-04T09:06:34.251Z,74.3
2022-11-04T09:07:34.248Z,74.5
2022-11-04T09:08:34.261Z,74.6
2022-11-04T09:09:34.294Z,74.6
2022-11-04T09:10:34.277Z,74.4
2022-11-04T09:11:34.288Z,74.0
2022-11-04T09:12:34.284Z,73.0
2022-11-04T09:13:40.263Z,73.8
2022-11-04T09:14:34.311Z,73.7
2022-11-04T09:15:34.318Z,73.6
2022-11-04T09:16:34.329Z,73.4
2022-11-04T09:17:34.337Z,73.5
2022-11-04T09:18:34.358Z,73.5
2022-11-04T09:19:34.366Z,73.6
2022-11-04T09:20:34.386Z,73.7
2022-11-04T09:21:34.387Z,73.5
2022-11-04T09:22:34.402Z,73.5
2022-11-04T09:23:34.449Z,73.5
2022-11-04T09:24:34.395Z,73.3
2022-11-04T09:25:34.413Z,73.1
2022-11-04T09:26:34.419Z,73.0
2022-11-04T09:27:34.421Z,72.3
2022-11-04T09:28:34.434Z,71.8
2022-11-04T09:29:34.439Z,71.4
2022-11-04T09:30:34.473Z,71.7
2022-11-04T09:31:34.452Z,71.4
2022-11-04T09:32:34.477Z,70.5
2022-11-04T09:33:34.720Z,70.2
2022-11-04T09:34:34.509Z,69.6
2022-11-04T09:35:34.499Z,69.8
2022-11-04T09:36:34.500Z,69.8
2022-11-04T09:37:34.512Z,69.0
2022-11-04T09:38:34.520Z,68.9
2022-11-04T09:39:34.517Z,68.8
2022-11-04T09:40:34.527Z,68.9
2022-11-04T09:41:34.531Z,68.4
2022-11-04T09:42:34.541Z,69.1
2022-11-04T09:43:34.567Z,68.3
2022-11-04T09:45:19.839Z,68.4
2022-11-04T09:45:34.565Z,68.1
2022-11-04T09:46:34.568Z,68.4
2022-11-04T09:47:34.589Z,68.9
2022-11-04T09:48:34.588Z,68.8
2022-11-04T09:49:34.597Z,68.2
2022-11-04T09:50:34.611Z,68.5
2022-11-04T09:51:55.774Z,68.7
2022-11-04T09:52:34.627Z,67.7
2022-11-04T09:53:34.622Z,68.1
2022-11-04T09:54:34.651Z,68.0
2022-11-04T09:55:34.640Z,68.5
2022-11-04T09:56:34.652Z,67.5
2022-11-04T09:57:34.872Z,67.3
2022-11-04T09:58:34.673Z,68.2
2022-11-04T09:59:34.669Z,67.2
2022-11-04T10:00:34.904Z,67.1
2022-11-04T10:01:35.276Z,67.8
2022-11-04T10:02:35.044Z,67.2
2022-11-04T10:03:34.748Z,67.1
2022-11-04T10:04:34.748Z,66.5
2022-11-04T10:05:34.742Z,66.4
2022-11-04T10:06:34.750Z,65.6
2022-11-04T10:07:34.773Z,65.6
2022-11-04T10:08:38.347Z,65.9
2022-11-04T10:09:34.766Z,65.1
2022-11-04T10:10:34.778Z,65.3
2022-11-04T10:11:34.787Z,65.2
2022-11-04T10:12:34.795Z,64.9
2022-11-04T10:13:34.798Z,64.5
2022-11-04T10:14:35.989Z,65.5
2022-11-04T10:15:34.814Z,66.0
2022-11-04T10:16:34.822Z,65.6
2022-11-04T10:17:34.822Z,66.0
2022-11-04T10:18:34.834Z,66.3
2022-11-04T10:19:34.847Z,66.8
2022-11-04T10:20:44.143Z,67.5
2022-11-04T10:21:34.861Z,67.9
2022-11-04T10:22:34.871Z,68.1
2022-11-04T10:23:34.880Z,67.9
2022-11-04T10:24:34.885Z,68.2
2022-11-04T10:25:34.919Z,68.2
2022-11-04T10:26:34.961Z,68.5
2022-11-04T10:27:34.984Z,68.3
2022-11-04T10:28:34.996Z,68.2
2022-11-04T10:29:35.004Z,68.3
2022-11-04T10:30:35.022Z,68.8
2022-11-04T10:31:34.965Z,68.8
2022-11-04T10:32:35.023Z,69.3
2022-11-04T10:33:34.965Z,69.6
2022-11-04T10:34:34.996Z,69.7
2022-11-04T10:35:35.043Z,69.7
2022-11-04T10:36:35.028Z,70.0
2022-11-04T10:37:35.007Z,70.2
2022-11-04T10:38:35.022Z,70.3
2022-11-04T10:39:35.036Z,70.3
2022-11-04T10:40:35.027Z,70.4
2022-11-04T10:41:35.035Z,70.5
2022-11-04T10:42:35.057Z,70.7
2022-11-04T10:43:35.053Z,71.2
2022-11-04T10:44:35.070Z,71.2
2022-11-04T10:45:35.072Z,71.3
2022-11-04T10:46:39.187Z,71.4
2022-11-04T10:47:35.096Z,71.6
2022-11-04T10:48:35.105Z,71.2
2022-11-04T10:49:35.111Z,71.4
2022-11-04T10:50:35.120Z,71.1
2022-11-04T10:51:35.124Z,71.2
2022-11-04T10:52:35.134Z,71.3
2022-11-04T10:53:35.138Z,71.3
2022-11-04T10:54:35.150Z,71.2
2022-11-04T10:55:35.152Z,71.1
2022-11-04T10:56:35.395Z,70.9
2022-11-04T10:57:35.260Z,71.3
2022-11-04T10:58:35.288Z,71.3
2022-11-04T10:59:35.185Z,71.4
2022-11-04T11:00:35.371Z,70.8
2022-11-04T11:01:35.918Z,71.2
2022-11-04T11:02:35.212Z,71.2
2022-11-04T11:03:35.239Z,70.4
2022-11-04T11:04:35.225Z,70.6
2022-11-04T11:05:35.235Z,70.9
2022-11-04T11:06:35.245Z,70.7
2022-11-04T11:07:35.251Z,70.8
2022-11-04T11:08:35.262Z,70.9
2022-11-04T11:09:35.257Z,70.8
2022-11-04T11:10:35.268Z,70.3
2022-11-04T11:11:35.298Z,70.6
2022-11-04T11:12:52.074Z,70.7
2022-11-04T11:13:35.293Z,69.9
2022-11-04T11:14:35.312Z,69.6
2022-11-04T11:15:35.330Z,69.7
2022-11-04T11:16:35.374Z,69.7
2022-11-04T11:17:35.328Z,69.8
2022-11-04T11:18:35.336Z,69.5
2022-11-04T11:19:35.348Z,69.8
2022-11-04T11:20:35.347Z,69.6
2022-11-04T11:21:35.365Z,68.7
2022-11-04T11:22:35.376Z,68.8
2022-11-04T11:23:35.374Z,68.2
2022-11-04T11:24:35.385Z,68.1
2022-11-04T11:25:35.385Z,68.8
2022-11-04T11:26:35.399Z,68.0
2022-11-04T11:27:35.418Z,68.1
2022-11-04T11:28:35.416Z,67.9
2022-11-04T11:29:35.426Z,67.6
2022-11-04T11:30:35.439Z,66.7
2022-11-04T11:31:35.452Z,66.6
2022-11-04T11:32:35.454Z,66.1
2022-11-04T11:33:35.462Z,66.1
2022-11-04T11:34:35.469Z,66.1
2022-11-04T11:35:35.483Z,66.1
2022-11-04T11:36:35.498Z,65.5
2022-11-04T11:37:35.530Z,66.3
2022-11-04T11:38:35.512Z,66.5
2022-11-04T11:39:35.525Z,65.6
2022-11-04T11:40:35.523Z,65.8
2022-11-04T11:41:46.013Z,65.2
2022-11-04T11:42:35.547Z,64.6
2022-11-04T11:43:35.550Z,64.7
2022-11-04T11:44:35.555Z,64.7
2022-11-04T11:45:35.566Z,64.5
2022-11-04T11:46:35.585Z,65.1
2022-11-04T11:47:35.595Z,64.7
2022-11-04T11:48:35.593Z,64.2
2022-11-04T11:49:35.604Z,64.1
2022-11-04T11:50:35.624Z,63.4
2022-11-04T11:51:35.622Z,63.8
2022-11-04T11:52:35.631Z,63.7
2022-11-04T11:53:35.667Z,63.4
2022-11-04T11:54:35.657Z,63.6
2022-11-04T11:55:35.660Z,63.3
2022-11-04T11:57:36.507Z,64.2
2022-11-04T12:01:36.052Z,63.4
2022-11-04T12:02:36.278Z,63.1
2022-11-04T12:09:35.909Z,64.0
2022-11-04T12:10:52.186Z,63.4
2022-11-04T12:11:35.822Z,63.8
2022-11-04T12:12:35.821Z,63.9
2022-11-04T12:13:35.828Z,63.9
2022-11-04T12:14:35.845Z,62.5
2022-11-04T12:15:35.855Z,63.2
2022-11-04T12:16:35.853Z,62.9
2022-11-04T12:17:35.861Z,62.8
2022-11-04T12:18:35.879Z,63.7
2022-11-04T12:19:35.880Z,63.8
2022-11-04T12:20:35.888Z,64.0
2022-11-04T12:21:35.897Z,64.1
2022-11-04T12:22:35.896Z,65.0
2022-11-04T12:23:35.909Z,65.3
2022-11-04T12:24:35.939Z,65.5
2022-11-04T12:25:35.934Z,65.8
2022-11-04T12:26:35.939Z,66.1
2022-11-04T12:27:35.959Z,66.4
2022-11-04T12:28:35.959Z,65.7
2022-11-04T12:29:35.960Z,65.6
2022-11-04T12:30:38.853Z,65.4
2022-11-04T12:31:35.987Z,65.3
2022-11-04T12:32:36.003Z,64.8
2022-11-04T12:33:36.016Z,64.6
2022-11-04T12:34:36.018Z,65.0
2022-11-04T12:35:36.019Z,64.3
2022-11-04T12:36:44.417Z,64.1
2022-11-04T12:37:36.040Z,64.6
2022-11-04T12:38:36.053Z,64.7
2022-11-04T12:39:36.081Z,65.3
2022-11-04T12:40:36.067Z,65.3
2022-11-04T12:42:36.094Z,65.7
2022-11-04T12:43:36.113Z,65.2
2022-11-04T12:44:36.112Z,65.5
2022-11-04T12:45:36.118Z,65.2
2022-11-04T12:46:36.134Z,65.5
2022-11-04T12:47:36.147Z,65.4
2022-11-04T12:48:36.151Z,65.5
2022-11-04T12:49:36.152Z,64.7
2022-11-04T12:50:36.164Z,64.4
2022-11-04T12:51:36.171Z,64.5
2022-11-04T12:52:36.183Z,63.6
2022-11-04T12:53:36.193Z,63.6
2022-11-04T12:54:36.208Z,63.3
2022-11-04T12:55:44.311Z,63.7
2022-11-04T12:56:36.215Z,64.2
2022-11-04T12:57:36.233Z,64.4
2022-11-04T12:58:36.233Z,64.6
2022-11-04T12:59:36.239Z,65.4
2022-11-04T13:00:36.446Z,64.9
2022-11-04T13:01:36.818Z,64.5
2022-11-04T13:02:36.542Z,64.8
2022-11-04T13:03:36.293Z,65.2
2022-11-04T13:04:36.284Z,64.4
2022-11-04T13:05:36.278Z,64.8
2022-11-04T13:06:36.293Z,64.7
2022-11-04T13:07:36.303Z,64.3
2022-11-04T13:08:36.314Z,64.5
2022-11-04T13:09:36.314Z,63.7
2022-11-04T13:10:36.322Z,64.3
2022-11-04T13:11:36.335Z,64.2
2022-11-04T13:12:36.352Z,63.6
2022-11-04T13:13:36.355Z,64.1
2022-11-04T13:14:36.362Z,63.6
2022-11-04T13:15:36.368Z,63.4
2022-11-04T13:16:36.400Z,63.0
2022-11-04T13:17:36.390Z,63.4
2022-11-04T13:18:36.414Z,64.0
2022-11-04T13:19:36.427Z,63.8
2022-11-04T13:20:36.417Z,64.3
2022-11-04T13:21:36.435Z,64.4
2022-11-04T13:22:36.464Z,64.4
2022-11-04T13:23:36.448Z,64.5
2022-11-04T13:24:36.460Z,64.4
2022-11-04T13:25:36.466Z,64.1
2022-11-04T13:26:36.481Z,64.1
2022-11-04T13:27:36.503Z,64.1
2022-11-04T13:28:36.500Z,64.3
2022-11-04T13:29:36.508Z,64.9
2022-11-04T13:30:36.548Z,64.8
2022-11-04T13:31:36.530Z,64.6
2022-11-04T13:32:36.531Z,64.7
2022-11-04T13:33:36.543Z,63.9
2022-11-04T13:34:36.549Z,64.2
2022-11-04T13:35:36.566Z,63.6
2022-11-04T13:36:36.574Z,64.0
2022-11-04T13:37:36.586Z,64.5
2022-11-04T13:38:36.591Z,64.4
2022-11-04T13:39:36.614Z,64.4
2022-11-04T13:40:36.616Z,64.6
2022-11-04T13:41:36.751Z,63.5
2022-11-04T13:42:36.635Z,63.8
2022-11-04T13:43:36.639Z,64.1
2022-11-04T13:44:36.654Z,64.1
2022-11-04T13:45:36.820Z,64.0
2022-11-04T13:46:36.676Z,63.8